sensor_id;sensor_type;location;lat;lon;timestamp;temperature;humidity
23385;DHT22;11865;45.394;10.978;2023-02-22T00:01:54;11.00;99.90
23385;DHT22;11865;45.394;10.978;2023-02-22T00:04:37;11.00;99.90
23385;DHT22;11865;45.394;10.978;2023-02-22T00:07:06;11.10;99.90
23385;DHT22;11865;45.394;10.978;2023-02-22T00:09:34;11.00;99.90
23385;DHT22;11865;45.394;10.978;2023-02-22T00:12:01;11.00;99.90
23385;DHT22;11865;45.394;10.978;2023-02-22T00:14:29;11.00;99.90
23385;DHT22;11865;45.394;10.978;2023-02-22T00:16:56;11.00;99.90
23385;DHT22;11865;45.394;10.978;2023-02-22T00:19:26;11.00;99.90
23385;DHT22;11865;45.394;10.978;2023-02-22T00:21:56;11.00;99.90
23385;DHT22;11865;45.394;10.978;2023-02-22T00:24:24;11.00;99.90
23385;DHT22;11865;45.394;10.978;2023-02-22T00:26:53;10.90;99.90
23385;DHT22;11865;45.394;10.978;2023-02-22T00:29:24;10.90;99.90
23385;DHT22;11865;45.394;10.978;2023-02-22T00:31:51;10.90;99.90
23385;DHT22;11865;45.394;10.978;2023-02-22T00:34:19;11.00;99.90
23385;DHT22;11865;45.394;10.978;2023-02-22T00:36:48;11.00;99.90
23385;DHT22;11865;45.394;10.978;2023-02-22T00:39:16;10.90;99.90
23385;DHT22;11865;45.394;10.978;2023-02-22T00:41:43;11.00;99.90
23385;DHT22;11865;45.394;10.978;2023-02-22T00:44:11;11.00;99.90
23385;DHT22;11865;45.394;10.978;2023-02-22T00:46:39;10.90;99.90
23385;DHT22;11865;45.394;10.978;2023-02-22T00:49:06;11.00;99.90
23385;DHT22;11865;45.394;10.978;2023-02-22T00:51:34;11.00;99.90
23385;DHT22;11865;45.394;10.978;2023-02-22T00:54:01;11.00;99.90
23385;DHT22;11865;45.394;10.978;2023-02-22T00:56:30;11.00;99.90
23385;DHT22;11865;45.394;10.978;2023-02-22T00:58:59;11.10;99.90
23385;DHT22;11865;45.394;10.978;2023-02-22T01:01:29;11.20;99.90
23385;DHT22;11865;45.394;10.978;2023-02-22T01:03:57;11.10;99.90
23385;DHT22;11865;45.394;10.978;2023-02-22T01:06:25;11.10;99.90
23385;DHT22;11865;45.394;10.978;2023-02-22T01:08:53;11.00;99.90
23385;DHT22;11865;45.394;10.978;2023-02-22T01:11:20;11.00;99.90
23385;DHT22;11865;45.394;10.978;2023-02-22T01:13:48;11.00;99.90
23385;DHT22;11865;45.394;10.978;2023-02-22T01:16:16;10.90;99.90
23385;DHT22;11865;45.394;10.978;2023-02-22T01:18:43;10.90;99.90
23385;DHT22;11865;45.394;10.978;2023-02-22T01:21:10;10.90;99.90
23385;DHT22;11865;45.394;10.978;2023-02-22T01:23:39;10.90;99.90
23385;DHT22;11865;45.394;10.978;2023-02-22T01:26:07;10.90;99.90
23385;DHT22;11865;45.394;10.978;2023-02-22T01:28:35;11.00;99.90
23385;DHT22;11865;45.394;10.978;2023-02-22T01:31:03;10.90;99.90
23385;DHT22;11865;45.394;10.978;2023-02-22T01:33:31;10.90;99.90
23385;DHT22;11865;45.394;10.978;2023-02-22T01:36:00;10.90;99.90
23385;DHT22;11865;45.394;10.978;2023-02-22T01:38:27;10.80;99.90
23385;DHT22;11865;45.394;10.978;2023-02-22T01:40:55;10.90;99.90
23385;DHT22;11865;45.394;10.978;2023-02-22T01:43:30;10.90;99.90
23385;DHT22;11865;45.394;10.978;2023-02-22T01:46:20;10.90;99.90
23385;DHT22;11865;45.394;10.978;2023-02-22T01:48:53;10.80;99.90
23385;DHT22;11865;45.394;10.978;2023-02-22T01:51:30;10.90;99.90
23385;DHT22;11865;45.394;10.978;2023-02-22T01:54:03;10.80;99.90
23385;DHT22;11865;45.394;10.978;2023-02-22T01:56:35;10.70;99.90
23385;DHT22;11865;45.394;10.978;2023-02-22T01:59:08;10.70;99.90
23385;DHT22;11865;45.394;10.978;2023-02-22T02:01:40;10.80;99.90
23385;DHT22;11865;45.394;10.978;2023-02-22T02:04:21;10.70;99.90
23385;DHT22;11865;45.394;10.978;2023-02-22T02:06:59;10.80;99.90
23385;DHT22;11865;45.394;10.978;2023-02-22T02:12:00;10.70;99.90
23385;DHT22;11865;45.394;10.978;2023-02-22T02:14:31;10.60;99.90
23385;DHT22;11865;45.394;10.978;2023-02-22T02:16:59;10.60;99.90
23385;DHT22;11865;45.394;10.978;2023-02-22T02:22:27;10.70;99.90
23385;DHT22;11865;45.394;10.978;2023-02-22T02:25:14;10.70;99.90
23385;DHT22;11865;45.394;10.978;2023-02-22T02:28:04;10.60;99.90
23385;DHT22;11865;45.394;10.978;2023-02-22T02:33:33;10.50;99.90
23385;DHT22;11865;45.394;10.978;2023-02-22T02:36:03;10.50;99.90
23385;DHT22;11865;45.394;10.978;2023-02-22T02:41:31;10.50;99.90
23385;DHT22;11865;45.394;10.978;2023-02-22T02:46:54;10.70;99.90
23385;DHT22;11865;45.394;10.978;2023-02-22T02:49:39;10.80;99.90
23385;DHT22;11865;45.394;10.978;2023-02-22T02:52:11;10.90;99.90
23385;DHT22;11865;45.394;10.978;2023-02-22T02:54:40;11.10;99.90
23385;DHT22;11865;45.394;10.978;2023-02-22T02:57:08;11.20;99.90
23385;DHT22;11865;45.394;10.978;2023-02-22T02:59:37;11.20;99.90
23385;DHT22;11865;45.394;10.978;2023-02-22T03:11:04;11.20;99.90
23385;DHT22;11865;45.394;10.978;2023-02-22T03:19:03;11.00;99.90
23385;DHT22;11865;45.394;10.978;2023-02-22T03:22:01;11.10;99.90
23385;DHT22;11865;45.394;10.978;2023-02-22T03:27:27;10.90;99.90
23385;DHT22;11865;45.394;10.978;2023-02-22T03:30:03;10.90;99.90
23385;DHT22;11865;45.394;10.978;2023-02-22T03:32:35;10.70;99.90
23385;DHT22;11865;45.394;10.978;2023-02-22T03:35:08;10.60;99.90
23385;DHT22;11865;45.394;10.978;2023-02-22T03:37:41;10.60;99.90
23385;DHT22;11865;45.394;10.978;2023-02-22T03:40:15;10.60;99.90
23385;DHT22;11865;45.394;10.978;2023-02-22T03:42:48;10.60;99.90
23385;DHT22;11865;45.394;10.978;2023-02-22T03:45:19;10.60;99.90
23385;DHT22;11865;45.394;10.978;2023-02-22T03:47:50;10.60;99.90
23385;DHT22;11865;45.394;10.978;2023-02-22T03:50:23;10.50;99.90
23385;DHT22;11865;45.394;10.978;2023-02-22T03:52:52;10.50;99.90
23385;DHT22;11865;45.394;10.978;2023-02-22T03:55:27;10.50;99.90
23385;DHT22;11865;45.394;10.978;2023-02-22T03:58:04;10.50;99.90
23385;DHT22;11865;45.394;10.978;2023-02-22T04:00:34;10.50;99.90
23385;DHT22;11865;45.394;10.978;2023-02-22T04:03:02;10.50;99.90
23385;DHT22;11865;45.394;10.978;2023-02-22T04:05:30;10.50;99.90
23385;DHT22;11865;45.394;10.978;2023-02-22T04:07:58;10.50;99.90
23385;DHT22;11865;45.394;10.978;2023-02-22T04:10:26;10.50;99.90
23385;DHT22;11865;45.394;10.978;2023-02-22T04:12:54;10.50;99.90
23385;DHT22;11865;45.394;10.978;2023-02-22T04:15:23;10.50;99.90
23385;DHT22;11865;45.394;10.978;2023-02-22T04:17:55;10.50;99.90
23385;DHT22;11865;45.394;10.978;2023-02-22T04:20:22;10.50;99.90
23385;DHT22;11865;45.394;10.978;2023-02-22T04:22:57;10.50;99.90
23385;DHT22;11865;45.394;10.978;2023-02-22T04:25:25;10.50;99.90
23385;DHT22;11865;45.394;10.978;2023-02-22T04:27:53;10.50;99.90
23385;DHT22;11865;45.394;10.978;2023-02-22T04:30:31;10.40;99.90
23385;DHT22;11865;45.394;10.978;2023-02-22T04:33:00;10.40;99.90
23385;DHT22;11865;45.394;10.978;2023-02-22T04:35:27;10.40;99.90
23385;DHT22;11865;45.394;10.978;2023-02-22T04:37:55;10.50;99.90
23385;DHT22;11865;45.394;10.978;2023-02-22T04:40:22;10.50;99.90
23385;DHT22;11865;45.394;10.978;2023-02-22T04:42:50;10.50;99.90
23385;DHT22;11865;45.394;10.978;2023-02-22T04:45:17;10.40;99.90
23385;DHT22;11865;45.394;10.978;2023-02-22T04:47:45;10.50;99.90
23385;DHT22;11865;45.394;10.978;2023-02-22T04:50:15;10.50;99.90
23385;DHT22;11865;45.394;10.978;2023-02-22T04:52:42;10.40;99.90
23385;DHT22;11865;45.394;10.978;2023-02-22T04:55:10;10.50;99.90
23385;DHT22;11865;45.394;10.978;2023-02-22T04:57:38;10.50;99.90
23385;DHT22;11865;45.394;10.978;2023-02-22T05:00:06;10.50;99.90
23385;DHT22;11865;45.394;10.978;2023-02-22T05:02:40;10.40;99.90
23385;DHT22;11865;45.394;10.978;2023-02-22T05:05:07;10.50;99.90
23385;DHT22;11865;45.394;10.978;2023-02-22T05:07:35;10.50;99.90
23385;DHT22;11865;45.394;10.978;2023-02-22T05:10:02;10.40;99.90
23385;DHT22;11865;45.394;10.978;2023-02-22T05:12:30;10.40;99.90
23385;DHT22;11865;45.394;10.978;2023-02-22T05:14:57;10.40;99.90
23385;DHT22;11865;45.394;10.978;2023-02-22T05:17:25;10.30;99.90
23385;DHT22;11865;45.394;10.978;2023-02-22T05:19:52;10.30;99.90
23385;DHT22;11865;45.394;10.978;2023-02-22T05:22:20;10.30;99.90
23385;DHT22;11865;45.394;10.978;2023-02-22T05:24:47;10.30;99.90
23385;DHT22;11865;45.394;10.978;2023-02-22T05:27:15;10.30;99.90
23385;DHT22;11865;45.394;10.978;2023-02-22T05:29:42;10.30;99.90
23385;DHT22;11865;45.394;10.978;2023-02-22T05:32:10;10.30;99.90
23385;DHT22;11865;45.394;10.978;2023-02-22T05:34:38;10.40;99.90
23385;DHT22;11865;45.394;10.978;2023-02-22T05:37:06;10.30;99.90
23385;DHT22;11865;45.394;10.978;2023-02-22T05:39:33;10.40;99.90
23385;DHT22;11865;45.394;10.978;2023-02-22T05:42:01;10.40;99.90
23385;DHT22;11865;45.394;10.978;2023-02-22T05:44:28;10.40;99.90
23385;DHT22;11865;45.394;10.978;2023-02-22T05:46:55;10.30;99.90
23385;DHT22;11865;45.394;10.978;2023-02-22T05:49:23;10.40;99.90
23385;DHT22;11865;45.394;10.978;2023-02-22T05:51:50;10.50;99.90
23385;DHT22;11865;45.394;10.978;2023-02-22T05:54:18;10.40;99.90
23385;DHT22;11865;45.394;10.978;2023-02-22T05:56:45;10.40;99.90
23385;DHT22;11865;45.394;10.978;2023-02-22T05:59:14;10.40;99.90
23385;DHT22;11865;45.394;10.978;2023-02-22T06:01:41;10.40;99.90
23385;DHT22;11865;45.394;10.978;2023-02-22T06:04:09;10.40;99.90
23385;DHT22;11865;45.394;10.978;2023-02-22T06:06:36;10.40;99.90
23385;DHT22;11865;45.394;10.978;2023-02-22T06:09:04;10.50;99.90
23385;DHT22;11865;45.394;10.978;2023-02-22T06:11:31;10.40;99.90
23385;DHT22;11865;45.394;10.978;2023-02-22T06:13:58;10.40;99.90
23385;DHT22;11865;45.394;10.978;2023-02-22T06:16:26;10.40;99.90
23385;DHT22;11865;45.394;10.978;2023-02-22T06:18:53;10.30;99.90
23385;DHT22;11865;45.394;10.978;2023-02-22T06:21:21;10.20;99.90
23385;DHT22;11865;45.394;10.978;2023-02-22T06:23:48;10.30;99.90
23385;DHT22;11865;45.394;10.978;2023-02-22T06:26:16;10.30;99.90
23385;DHT22;11865;45.394;10.978;2023-02-22T06:28:45;10.40;99.90
23385;DHT22;11865;45.394;10.978;2023-02-22T06:31:13;10.50;99.90
23385;DHT22;11865;45.394;10.978;2023-02-22T06:33:41;10.30;99.90
23385;DHT22;11865;45.394;10.978;2023-02-22T06:36:09;10.40;99.90
23385;DHT22;11865;45.394;10.978;2023-02-22T06:38:36;10.40;99.90
23385;DHT22;11865;45.394;10.978;2023-02-22T06:41:04;10.40;99.90
23385;DHT22;11865;45.394;10.978;2023-02-22T06:43:31;10.50;99.90
23385;DHT22;11865;45.394;10.978;2023-02-22T06:45:59;10.50;99.90
23385;DHT22;11865;45.394;10.978;2023-02-22T06:48:26;10.50;99.90
23385;DHT22;11865;45.394;10.978;2023-02-22T06:50:54;10.50;99.90
23385;DHT22;11865;45.394;10.978;2023-02-22T06:53:21;10.50;99.90
23385;DHT22;11865;45.394;10.978;2023-02-22T06:55:52;10.50;99.90
23385;DHT22;11865;45.394;10.978;2023-02-22T06:58:20;10.60;99.90
23385;DHT22;11865;45.394;10.978;2023-02-22T07:00:48;10.50;99.90
23385;DHT22;11865;45.394;10.978;2023-02-22T07:03:15;10.50;99.90
23385;DHT22;11865;45.394;10.978;2023-02-22T07:05:43;10.50;99.90
23385;DHT22;11865;45.394;10.978;2023-02-22T07:08:11;10.60;99.90
23385;DHT22;11865;45.394;10.978;2023-02-22T07:10:39;10.60;99.90
23385;DHT22;11865;45.394;10.978;2023-02-22T07:13:07;10.60;99.90
23385;DHT22;11865;45.394;10.978;2023-02-22T07:15:35;10.60;99.90
23385;DHT22;11865;45.394;10.978;2023-02-22T07:18:03;10.60;99.90
23385;DHT22;11865;45.394;10.978;2023-02-22T07:20:30;10.70;99.90
23385;DHT22;11865;45.394;10.978;2023-02-22T07:22:58;10.70;99.90
23385;DHT22;11865;45.394;10.978;2023-02-22T07:25:26;10.80;99.90
23385;DHT22;11865;45.394;10.978;2023-02-22T07:27:54;10.80;99.90
23385;DHT22;11865;45.394;10.978;2023-02-22T07:30:24;10.60;99.90
23385;DHT22;11865;45.394;10.978;2023-02-22T07:32:53;10.70;99.90
23385;DHT22;11865;45.394;10.978;2023-02-22T07:35:24;10.80;99.90
23385;DHT22;11865;45.394;10.978;2023-02-22T07:37:53;10.90;99.90
23385;DHT22;11865;45.394;10.978;2023-02-22T07:40:23;11.00;99.90
23385;DHT22;11865;45.394;10.978;2023-02-22T07:42:56;11.10;99.90
23385;DHT22;11865;45.394;10.978;2023-02-22T07:45:30;11.20;99.90
23385;DHT22;11865;45.394;10.978;2023-02-22T07:47:59;11.20;99.90
23385;DHT22;11865;45.394;10.978;2023-02-22T07:50:28;11.30;99.90
23385;DHT22;11865;45.394;10.978;2023-02-22T07:52:59;11.20;99.90
23385;DHT22;11865;45.394;10.978;2023-02-22T07:55:28;11.30;99.90
23385;DHT22;11865;45.394;10.978;2023-02-22T07:57:59;11.40;99.90
23385;DHT22;11865;45.394;10.978;2023-02-22T08:00:38;11.40;99.90
23385;DHT22;11865;45.394;10.978;2023-02-22T08:03:11;11.40;99.90
23385;DHT22;11865;45.394;10.978;2023-02-22T08:05:44;11.20;99.90
23385;DHT22;11865;45.394;10.978;2023-02-22T08:08:12;11.30;99.90
23385;DHT22;11865;45.394;10.978;2023-02-22T08:10:45;11.20;99.90
23385;DHT22;11865;45.394;10.978;2023-02-22T08:13:12;11.10;99.90
23385;DHT22;11865;45.394;10.978;2023-02-22T08:15:40;11.30;99.90
23385;DHT22;11865;45.394;10.978;2023-02-22T08:18:13;11.30;99.90
23385;DHT22;11865;45.394;10.978;2023-02-22T08:20:42;11.30;99.90
23385;DHT22;11865;45.394;10.978;2023-02-22T08:23:11;11.40;99.90
23385;DHT22;11865;45.394;10.978;2023-02-22T08:25:39;11.40;99.90
23385;DHT22;11865;45.394;10.978;2023-02-22T08:28:09;11.40;99.90
23385;DHT22;11865;45.394;10.978;2023-02-22T08:30:38;11.50;99.90
23385;DHT22;11865;45.394;10.978;2023-02-22T08:33:07;11.60;99.90
23385;DHT22;11865;45.394;10.978;2023-02-22T08:35:34;11.70;99.90
23385;DHT22;11865;45.394;10.978;2023-02-22T08:38:04;11.90;99.90
23385;DHT22;11865;45.394;10.978;2023-02-22T08:40:34;12.00;99.90
23385;DHT22;11865;45.394;10.978;2023-02-22T08:43:02;12.00;99.90
23385;DHT22;11865;45.394;10.978;2023-02-22T08:45:30;12.20;99.90
23385;DHT22;11865;45.394;10.978;2023-02-22T08:47:58;12.20;99.90
23385;DHT22;11865;45.394;10.978;2023-02-22T08:50:28;12.20;99.90
23385;DHT22;11865;45.394;10.978;2023-02-22T08:52:58;12.30;99.90
23385;DHT22;11865;45.394;10.978;2023-02-22T08:55:28;12.20;99.90
23385;DHT22;11865;45.394;10.978;2023-02-22T08:57:58;12.50;99.90
23385;DHT22;11865;45.394;10.978;2023-02-22T09:00:28;12.60;99.90
23385;DHT22;11865;45.394;10.978;2023-02-22T09:03:00;12.70;99.90
23385;DHT22;11865;45.394;10.978;2023-02-22T09:05:28;12.80;99.90
23385;DHT22;11865;45.394;10.978;2023-02-22T09:07:58;12.70;99.90
23385;DHT22;11865;45.394;10.978;2023-02-22T09:10:29;12.80;99.90
23385;DHT22;11865;45.394;10.978;2023-02-22T09:12:58;12.90;99.90
23385;DHT22;11865;45.394;10.978;2023-02-22T09:15:27;13.10;99.90
23385;DHT22;11865;45.394;10.978;2023-02-22T09:17:55;13.20;99.90
23385;DHT22;11865;45.394;10.978;2023-02-22T09:20:24;13.00;99.90
23385;DHT22;11865;45.394;10.978;2023-02-22T09:22:52;13.20;99.90
23385;DHT22;11865;45.394;10.978;2023-02-22T09:25:20;13.30;99.90
23385;DHT22;11865;45.394;10.978;2023-02-22T09:27:52;13.50;99.90
23385;DHT22;11865;45.394;10.978;2023-02-22T09:32:58;13.70;99.90
23385;DHT22;11865;45.394;10.978;2023-02-22T09:35:26;13.70;99.90
23385;DHT22;11865;45.394;10.978;2023-02-22T09:38:00;13.70;99.90
23385;DHT22;11865;45.394;10.978;2023-02-22T09:40:30;13.80;99.90
23385;DHT22;11865;45.394;10.978;2023-02-22T09:48:30;13.90;99.90
23385;DHT22;11865;45.394;10.978;2023-02-22T09:51:02;14.00;99.90
23385;DHT22;11865;45.394;10.978;2023-02-22T09:53:42;14.00;99.90
23385;DHT22;11865;45.394;10.978;2023-02-22T09:56:11;14.20;99.90
23385;DHT22;11865;45.394;10.978;2023-02-22T09:58:44;14.50;99.90
23385;DHT22;11865;45.394;10.978;2023-02-22T10:04:18;14.80;99.90
23385;DHT22;11865;45.394;10.978;2023-02-22T10:07:03;14.70;99.90
23385;DHT22;11865;45.394;10.978;2023-02-22T10:09:36;14.80;99.90
23385;DHT22;11865;45.394;10.978;2023-02-22T10:12:11;14.40;99.90
23385;DHT22;11865;45.394;10.978;2023-02-22T10:25:34;14.30;99.90
23385;DHT22;11865;45.394;10.978;2023-02-22T10:28:10;14.60;99.90
23385;DHT22;11865;45.394;10.978;2023-02-22T10:30:42;14.70;99.90
23385;DHT22;11865;45.394;10.978;2023-02-22T10:33:19;14.70;99.90
23385;DHT22;11865;45.394;10.978;2023-02-22T10:35:51;14.60;99.90
23385;DHT22;11865;45.394;10.978;2023-02-22T10:38:23;14.80;99.90
23385;DHT22;11865;45.394;10.978;2023-02-22T10:43:37;14.60;99.90
23385;DHT22;11865;45.394;10.978;2023-02-22T10:46:07;14.70;99.90
23385;DHT22;11865;45.394;10.978;2023-02-22T10:48:38;14.60;99.90
23385;DHT22;11865;45.394;10.978;2023-02-22T10:51:08;14.80;99.90
23385;DHT22;11865;45.394;10.978;2023-02-22T10:53:37;14.60;99.90
23385;DHT22;11865;45.394;10.978;2023-02-22T10:59:01;15.00;99.90
23385;DHT22;11865;45.394;10.978;2023-02-22T11:04:19;14.80;99.90
23385;DHT22;11865;45.394;10.978;2023-02-22T11:10:03;15.00;99.90
23385;DHT22;11865;45.394;10.978;2023-02-22T11:12:37;15.50;99.90
23385;DHT22;11865;45.394;10.978;2023-02-22T11:17:47;15.80;99.90
23385;DHT22;11865;45.394;10.978;2023-02-22T11:20:26;15.80;99.70
23385;DHT22;11865;45.394;10.978;2023-02-22T11:22:57;16.00;99.90
23385;DHT22;11865;45.394;10.978;2023-02-22T11:25:35;16.10;99.90
23385;DHT22;11865;45.394;10.978;2023-02-22T11:28:26;15.90;99.60
23385;DHT22;11865;45.394;10.978;2023-02-22T11:31:21;15.90;99.90
23385;DHT22;11865;45.394;10.978;2023-02-22T11:33:56;15.60;99.70
23385;DHT22;11865;45.394;10.978;2023-02-22T11:36:39;15.80;99.90
23385;DHT22;11865;45.394;10.978;2023-02-22T11:39:27;15.70;99.80
23385;DHT22;11865;45.394;10.978;2023-02-22T11:41:55;15.60;99.90
23385;DHT22;11865;45.394;10.978;2023-02-22T11:44:29;15.50;99.70
23385;DHT22;11865;45.394;10.978;2023-02-22T11:47:00;15.50;99.80
23385;DHT22;11865;45.394;10.978;2023-02-22T11:49:35;15.30;98.70
23385;DHT22;11865;45.394;10.978;2023-02-22T11:58:27;15.80;99.90
23385;DHT22;11865;45.394;10.978;2023-02-22T12:01:47;15.50;99.20
23385;DHT22;11865;45.394;10.978;2023-02-22T12:09:35;15.90;99.90
23385;DHT22;11865;45.394;10.978;2023-02-22T12:13:20;16.00;99.80
23385;DHT22;11865;45.394;10.978;2023-02-22T12:15:23;15.80;99.60
23385;DHT22;11865;45.394;10.978;2023-02-22T12:20:40;15.70;99.80
23385;DHT22;11865;45.394;10.978;2023-02-22T12:23:13;15.80;99.90
23385;DHT22;11865;45.394;10.978;2023-02-22T12:25:54;15.70;99.90
23385;DHT22;11865;45.394;10.978;2023-02-22T12:28:37;15.70;99.90
23385;DHT22;11865;45.394;10.978;2023-02-22T12:31:15;15.80;99.90
23385;DHT22;11865;45.394;10.978;2023-02-22T12:36:37;15.80;99.90
23385;DHT22;11865;45.394;10.978;2023-02-22T12:39:26;15.70;99.90
23385;DHT22;11865;45.394;10.978;2023-02-22T12:42:17;15.70;99.90
23385;DHT22;11865;45.394;10.978;2023-02-22T12:45:10;15.60;99.90
23385;DHT22;11865;45.394;10.978;2023-02-22T12:47:50;15.90;99.20
23385;DHT22;11865;45.394;10.978;2023-02-22T12:50:22;15.90;99.80
23385;DHT22;11865;45.394;10.978;2023-02-22T12:52:56;16.10;99.70
23385;DHT22;11865;45.394;10.978;2023-02-22T12:55:33;16.00;99.70
23385;DHT22;11865;45.394;10.978;2023-02-22T12:58:14;16.00;99.30
23385;DHT22;11865;45.394;10.978;2023-02-22T13:17:02;16.00;99.90
23385;DHT22;11865;45.394;10.978;2023-02-22T13:20:00;15.90;99.20
23385;DHT22;11865;45.394;10.978;2023-02-22T13:23:04;16.20;99.90
23385;DHT22;11865;45.394;10.978;2023-02-22T13:25:44;16.10;99.40
23385;DHT22;11865;45.394;10.978;2023-02-22T13:28:34;16.10;99.90
23385;DHT22;11865;45.394;10.978;2023-02-22T13:34:01;15.70;99.90
23385;DHT22;11865;45.394;10.978;2023-02-22T13:36:40;15.90;99.90
23385;DHT22;11865;45.394;10.978;2023-02-22T13:42:25;15.50;99.90
23385;DHT22;11865;45.394;10.978;2023-02-22T13:48:33;15.40;99.90
23385;DHT22;11865;45.394;10.978;2023-02-22T13:51:07;15.40;99.90
23385;DHT22;11865;45.394;10.978;2023-02-22T13:53:57;15.60;99.90
23385;DHT22;11865;45.394;10.978;2023-02-22T13:56:26;15.60;99.90
23385;DHT22;11865;45.394;10.978;2023-02-22T13:58:57;15.60;99.90
23385;DHT22;11865;45.394;10.978;2023-02-22T14:01:45;15.60;99.90
23385;DHT22;11865;45.394;10.978;2023-02-22T14:06:47;15.50;99.90
23385;DHT22;11865;45.394;10.978;2023-02-22T14:09:19;15.60;99.90
23385;DHT22;11865;45.394;10.978;2023-02-22T14:12:03;15.70;99.90
23385;DHT22;11865;45.394;10.978;2023-02-22T14:14:31;15.60;99.90
23385;DHT22;11865;45.394;10.978;2023-02-22T14:17:24;15.80;99.90
23385;DHT22;11865;45.394;10.978;2023-02-22T14:22:42;15.50;99.90
23385;DHT22;11865;45.394;10.978;2023-02-22T14:27:58;15.40;99.90
23385;DHT22;11865;45.394;10.978;2023-02-22T14:30:31;15.40;99.90
23385;DHT22;11865;45.394;10.978;2023-02-22T14:32:59;15.30;99.90
23385;DHT22;11865;45.394;10.978;2023-02-22T14:35:35;15.30;99.90
23385;DHT22;11865;45.394;10.978;2023-02-22T14:38:18;15.00;99.90
23385;DHT22;11865;45.394;10.978;2023-02-22T14:40:47;14.80;99.90
23385;DHT22;11865;45.394;10.978;2023-02-22T14:43:19;14.90;99.90
23385;DHT22;11865;45.394;10.978;2023-02-22T14:45:51;15.00;99.90
23385;DHT22;11865;45.394;10.978;2023-02-22T14:50:58;14.90;99.90
23385;DHT22;11865;45.394;10.978;2023-02-22T14:54:27;14.90;99.90
23385;DHT22;11865;45.394;10.978;2023-02-22T14:56:41;14.80;99.90
23385;DHT22;11865;45.394;10.978;2023-02-22T14:59:18;14.80;99.90
23385;DHT22;11865;45.394;10.978;2023-02-22T15:01:47;14.90;99.90
23385;DHT22;11865;45.394;10.978;2023-02-22T15:04:32;14.80;99.90
23385;DHT22;11865;45.394;10.978;2023-02-22T15:07:08;14.80;99.90
23385;DHT22;11865;45.394;10.978;2023-02-22T15:09:45;14.90;99.90
23385;DHT22;11865;45.394;10.978;2023-02-22T15:12:26;14.90;99.90
23385;DHT22;11865;45.394;10.978;2023-02-22T15:15:10;14.90;99.90
23385;DHT22;11865;45.394;10.978;2023-02-22T15:17:39;14.80;99.90
23385;DHT22;11865;45.394;10.978;2023-02-22T15:20:08;14.80;99.90
23385;DHT22;11865;45.394;10.978;2023-02-22T15:22:37;14.90;99.90
23385;DHT22;11865;45.394;10.978;2023-02-22T15:25:06;14.80;99.90
23385;DHT22;11865;45.394;10.978;2023-02-22T15:27:35;14.70;99.90
23385;DHT22;11865;45.394;10.978;2023-02-22T15:30:23;14.70;99.90
23385;DHT22;11865;45.394;10.978;2023-02-22T15:32:52;14.70;99.90
23385;DHT22;11865;45.394;10.978;2023-02-22T15:35:31;14.70;99.90
23385;DHT22;11865;45.394;10.978;2023-02-22T15:40:39;14.70;99.90
23385;DHT22;11865;45.394;10.978;2023-02-22T15:43:18;14.80;99.90
23385;DHT22;11865;45.394;10.978;2023-02-22T15:45:46;14.80;99.90
23385;DHT22;11865;45.394;10.978;2023-02-22T15:48:14;14.80;99.90
23385;DHT22;11865;45.394;10.978;2023-02-22T15:51:03;14.80;99.90
23385;DHT22;11865;45.394;10.978;2023-02-22T15:53:38;14.60;99.90
23385;DHT22;11865;45.394;10.978;2023-02-22T15:56:11;14.70;99.90
23385;DHT22;11865;45.394;10.978;2023-02-22T15:58:41;14.70;99.90
23385;DHT22;11865;45.394;10.978;2023-02-22T16:01:14;14.70;99.90
23385;DHT22;11865;45.394;10.978;2023-02-22T16:03:50;14.50;99.90
23385;DHT22;11865;45.394;10.978;2023-02-22T16:08:55;14.40;99.90
23385;DHT22;11865;45.394;10.978;2023-02-22T16:11:30;14.30;99.90
23385;DHT22;11865;45.394;10.978;2023-02-22T16:14:21;14.10;99.90
23385;DHT22;11865;45.394;10.978;2023-02-22T16:16:49;14.10;99.90
23385;DHT22;11865;45.394;10.978;2023-02-22T16:19:40;14.00;99.90
23385;DHT22;11865;45.394;10.978;2023-02-22T16:22:24;14.10;99.90
23385;DHT22;11865;45.394;10.978;2023-02-22T16:24:53;13.90;99.90
23385;DHT22;11865;45.394;10.978;2023-02-22T16:27:43;13.70;99.90
23385;DHT22;11865;45.394;10.978;2023-02-22T16:32:55;13.30;99.90
23385;DHT22;11865;45.394;10.978;2023-02-22T16:35:24;13.30;99.90
23385;DHT22;11865;45.394;10.978;2023-02-22T16:37:59;13.10;99.90
23385;DHT22;11865;45.394;10.978;2023-02-22T16:40:37;13.10;99.90
23385;DHT22;11865;45.394;10.978;2023-02-22T16:43:16;13.00;99.90
23385;DHT22;11865;45.394;10.978;2023-02-22T16:45:44;13.00;99.90
23385;DHT22;11865;45.394;10.978;2023-02-22T16:48:20;12.90;99.90
23385;DHT22;11865;45.394;10.978;2023-02-22T16:50:50;13.00;99.90
23385;DHT22;11865;45.394;10.978;2023-02-22T16:53:20;12.90;99.90
23385;DHT22;11865;45.394;10.978;2023-02-22T16:55:50;12.70;99.90
23385;DHT22;11865;45.394;10.978;2023-02-22T16:58:24;12.40;99.90
23385;DHT22;11865;45.394;10.978;2023-02-22T17:00:56;12.30;99.90
23385;DHT22;11865;45.394;10.978;2023-02-22T17:03:25;12.20;99.90
23385;DHT22;11865;45.394;10.978;2023-02-22T17:05:52;12.00;99.90
23385;DHT22;11865;45.394;10.978;2023-02-22T17:08:20;12.00;99.90
23385;DHT22;11865;45.394;10.978;2023-02-22T17:10:49;12.00;99.90
23385;DHT22;11865;45.394;10.978;2023-02-22T17:13:19;12.10;99.90
23385;DHT22;11865;45.394;10.978;2023-02-22T17:15:53;12.20;99.90
23385;DHT22;11865;45.394;10.978;2023-02-22T17:18:22;12.20;99.90
23385;DHT22;11865;45.394;10.978;2023-02-22T17:20:51;12.20;99.90
23385;DHT22;11865;45.394;10.978;2023-02-22T17:23:19;12.10;99.90
23385;DHT22;11865;45.394;10.978;2023-02-22T17:25:52;12.00;99.90
23385;DHT22;11865;45.394;10.978;2023-02-22T17:28:21;11.80;99.90
23385;DHT22;11865;45.394;10.978;2023-02-22T17:30:50;11.90;99.90
23385;DHT22;11865;45.394;10.978;2023-02-22T17:33:21;12.00;99.90
23385;DHT22;11865;45.394;10.978;2023-02-22T17:35:54;12.20;99.90
23385;DHT22;11865;45.394;10.978;2023-02-22T17:38:22;12.00;99.90
23385;DHT22;11865;45.394;10.978;2023-02-22T17:40:49;11.80;99.90
23385;DHT22;11865;45.394;10.978;2023-02-22T17:43:21;11.70;99.90
23385;DHT22;11865;45.394;10.978;2023-02-22T17:45:48;11.70;99.90
23385;DHT22;11865;45.394;10.978;2023-02-22T17:48:17;11.90;99.90
23385;DHT22;11865;45.394;10.978;2023-02-22T17:50:45;12.00;99.90
23385;DHT22;11865;45.394;10.978;2023-02-22T17:53:15;11.90;99.90
23385;DHT22;11865;45.394;10.978;2023-02-22T17:55:44;12.20;99.90